sensor_id;sensor_type;location;lat;lon;timestamp;P1;durP1;ratioP1;P2;durP2;ratioP2
50821;SDS011;36794;51.212;6.980;2023-03-14T00:01:39;5.67;;;1.00;;
50821;SDS011;36794;51.212;6.980;2023-03-14T00:04:05;3.83;;;0.90;;
50821;SDS011;36794;51.212;6.980;2023-03-14T00:06:31;7.10;;;1.30;;
50821;SDS011;36794;51.212;6.980;2023-03-14T00:08:57;7.27;;;1.23;;
50821;SDS011;36794;51.212;6.980;2023-03-14T00:11:23;4.33;;;1.17;;
50821;SDS011;36794;51.212;6.980;2023-03-14T00:13:49;5.03;;;1.17;;
50821;SDS011;36794;51.212;6.980;2023-03-14T00:16:16;4.93;;;1.57;;
50821;SDS011;36794;51.212;6.980;2023-03-14T00:18:42;5.53;;;1.10;;
50821;SDS011;36794;51.212;6.980;2023-03-14T00:21:08;6.93;;;1.20;;
50821;SDS011;36794;51.212;6.980;2023-03-14T00:23:36;8.07;;;1.40;;
50821;SDS011;36794;51.212;6.980;2023-03-14T00:26:03;7.03;;;1.10;;
50821;SDS011;36794;51.212;6.980;2023-03-14T00:28:29;7.57;;;1.30;;
50821;SDS011;36794;51.212;6.980;2023-03-14T00:30:55;5.47;;;1.00;;
50821;SDS011;36794;51.212;6.980;2023-03-14T00:33:21;9.83;;;1.30;;
50821;SDS011;36794;51.212;6.980;2023-03-14T00:35:58;10.30;;;1.90;;
50821;SDS011;36794;51.212;6.980;2023-03-14T00:38:24;8.50;;;1.43;;
50821;SDS011;36794;51.212;6.980;2023-03-14T00:40:51;5.67;;;1.10;;
50821;SDS011;36794;51.212;6.980;2023-03-14T00:43:17;9.60;;;1.60;;
50821;SDS011;36794;51.212;6.980;2023-03-14T00:45:43;7.93;;;1.57;;
50821;SDS011;36794;51.212;6.980;2023-03-14T00:48:09;5.13;;;1.47;;
50821;SDS011;36794;51.212;6.980;2023-03-14T00:50:35;6.67;;;1.60;;
50821;SDS011;36794;51.212;6.980;2023-03-14T00:53:01;14.53;;;2.73;;
50821;SDS011;36794;51.212;6.980;2023-03-14T00:55:27;16.33;;;2.07;;
50821;SDS011;36794;51.212;6.980;2023-03-14T00:57:53;9.10;;;1.60;;
50821;SDS011;36794;51.212;6.980;2023-03-14T01:00:19;6.43;;;1.30;;
50821;SDS011;36794;51.212;6.980;2023-03-14T01:02:45;5.90;;;0.97;;
50821;SDS011;36794;51.212;6.980;2023-03-14T01:05:11;6.17;;;1.00;;
50821;SDS011;36794;51.212;6.980;2023-03-14T01:07:37;9.17;;;1.80;;
50821;SDS011;36794;51.212;6.980;2023-03-14T01:10:04;10.63;;;1.60;;
50821;SDS011;36794;51.212;6.980;2023-03-14T01:12:30;7.27;;;0.93;;
50821;SDS011;36794;51.212;6.980;2023-03-14T01:14:56;6.77;;;0.70;;
50821;SDS011;36794;51.212;6.980;2023-03-14T01:17:22;6.67;;;0.87;;
50821;SDS011;36794;51.212;6.980;2023-03-14T01:19:48;5.03;;;0.80;;
50821;SDS011;36794;51.212;6.980;2023-03-14T01:22:14;5.97;;;0.80;;
50821;SDS011;36794;51.212;6.980;2023-03-14T01:24:40;4.97;;;0.60;;
50821;SDS011;36794;51.212;6.980;2023-03-14T01:27:06;7.00;;;0.80;;
50821;SDS011;36794;51.212;6.980;2023-03-14T01:29:32;4.17;;;0.50;;
50821;SDS011;36794;51.212;6.980;2023-03-14T01:31:58;5.83;;;0.60;;
50821;SDS011;36794;51.212;6.980;2023-03-14T01:34:24;8.40;;;1.47;;
50821;SDS011;36794;51.212;6.980;2023-03-14T01:36:49;7.30;;;1.10;;
50821;SDS011;36794;51.212;6.980;2023-03-14T01:39:15;6.07;;;0.70;;
50821;SDS011;36794;51.212;6.980;2023-03-14T01:41:41;7.40;;;0.77;;
50821;SDS011;36794;51.212;6.980;2023-03-14T01:44:11;4.80;;;0.97;;
50821;SDS011;36794;51.212;6.980;2023-03-14T01:51:49;8.43;;;0.90;;
50821;SDS011;36794;51.212;6.980;2023-03-14T01:54:25;12.23;;;1.60;;
50821;SDS011;36794;51.212;6.980;2023-03-14T01:59:18;7.33;;;1.00;;
50821;SDS011;36794;51.212;6.980;2023-03-14T02:01:45;8.30;;;1.27;;
50821;SDS011;36794;51.212;6.980;2023-03-14T02:04:12;8.80;;;1.10;;
50821;SDS011;36794;51.212;6.980;2023-03-14T02:06:47;8.60;;;1.17;;
50821;SDS011;36794;51.212;6.980;2023-03-14T02:09:14;5.87;;;1.00;;
50821;SDS011;36794;51.212;6.980;2023-03-14T02:11:41;12.60;;;1.20;;
50821;SDS011;36794;51.212;6.980;2023-03-14T02:14:07;11.13;;;1.10;;
50821;SDS011;36794;51.212;6.980;2023-03-14T02:16:35;11.73;;;1.57;;
50821;SDS011;36794;51.212;6.980;2023-03-14T02:19:01;10.27;;;1.00;;
50821;SDS011;36794;51.212;6.980;2023-03-14T02:24:15;11.33;;;1.17;;
50821;SDS011;36794;51.212;6.980;2023-03-14T02:27:00;6.73;;;1.30;;
50821;SDS011;36794;51.212;6.980;2023-03-14T02:29:26;11.63;;;2.00;;
50821;SDS011;36794;51.212;6.980;2023-03-14T02:31:52;10.37;;;1.40;;
50821;SDS011;36794;51.212;6.980;2023-03-14T02:34:19;7.00;;;0.90;;
50821;SDS011;36794;51.212;6.980;2023-03-14T02:36:44;4.47;;;0.90;;
50821;SDS011;36794;51.212;6.980;2023-03-14T02:39:13;7.87;;;0.77;;
50821;SDS011;36794;51.212;6.980;2023-03-14T02:41:41;9.17;;;1.00;;
50821;SDS011;36794;51.212;6.980;2023-03-14T02:44:10;11.23;;;1.07;;
50821;SDS011;36794;51.212;6.980;2023-03-14T02:46:35;5.83;;;0.90;;
50821;SDS011;36794;51.212;6.980;2023-03-14T02:49:02;8.63;;;0.83;;
50821;SDS011;36794;51.212;6.980;2023-03-14T02:51:29;5.90;;;0.80;;
50821;SDS011;36794;51.212;6.980;2023-03-14T02:53:55;9.30;;;0.80;;
50821;SDS011;36794;51.212;6.980;2023-03-14T02:56:21;3.87;;;0.60;;
50821;SDS011;36794;51.212;6.980;2023-03-14T02:58:47;7.67;;;1.30;;
50821;SDS011;36794;51.212;6.980;2023-03-14T03:01:13;4.80;;;0.80;;
50821;SDS011;36794;51.212;6.980;2023-03-14T03:03:39;10.20;;;1.60;;
50821;SDS011;36794;51.212;6.980;2023-03-14T03:06:05;6.03;;;1.00;;
50821;SDS011;36794;51.212;6.980;2023-03-14T03:08:31;5.40;;;0.80;;
50821;SDS011;36794;51.212;6.980;2023-03-14T03:10:57;6.53;;;0.77;;
50821;SDS011;36794;51.212;6.980;2023-03-14T03:13:23;9.47;;;1.20;;
50821;SDS011;36794;51.212;6.980;2023-03-14T03:15:49;3.53;;;0.77;;
50821;SDS011;36794;51.212;6.980;2023-03-14T03:18:15;8.27;;;0.97;;
50821;SDS011;36794;51.212;6.980;2023-03-14T03:20:41;7.77;;;1.50;;
50821;SDS011;36794;51.212;6.980;2023-03-14T03:23:07;6.50;;;0.90;;
50821;SDS011;36794;51.212;6.980;2023-03-14T03:25:33;6.53;;;0.93;;
50821;SDS011;36794;51.212;6.980;2023-03-14T03:27:59;6.23;;;1.20;;
50821;SDS011;36794;51.212;6.980;2023-03-14T03:30:25;5.20;;;0.90;;
50821;SDS011;36794;51.212;6.980;2023-03-14T03:32:51;8.53;;;0.90;;
50821;SDS011;36794;51.212;6.980;2023-03-14T03:35:17;5.17;;;0.90;;
50821;SDS011;36794;51.212;6.980;2023-03-14T03:37:43;7.63;;;0.90;;
50821;SDS011;36794;51.212;6.980;2023-03-14T03:40:09;9.80;;;1.57;;
50821;SDS011;36794;51.212;6.980;2023-03-14T03:42:35;11.07;;;1.10;;
50821;SDS011;36794;51.212;6.980;2023-03-14T03:45:02;9.33;;;2.00;;
50821;SDS011;36794;51.212;6.980;2023-03-14T03:47:29;10.90;;;1.23;;
50821;SDS011;36794;51.212;6.980;2023-03-14T03:49:55;8.67;;;1.30;;
50821;SDS011;36794;51.212;6.980;2023-03-14T03:52:21;8.00;;;1.50;;
50821;SDS011;36794;51.212;6.980;2023-03-14T03:54:47;8.77;;;1.60;;
50821;SDS011;36794;51.212;6.980;2023-03-14T03:57:13;12.50;;;2.00;;
50821;SDS011;36794;51.212;6.980;2023-03-14T03:59:39;5.13;;;1.00;;
50821;SDS011;36794;51.212;6.980;2023-03-14T04:02:06;11.20;;;1.10;;
50821;SDS011;36794;51.212;6.980;2023-03-14T04:04:31;9.70;;;1.67;;
50821;SDS011;36794;51.212;6.980;2023-03-14T04:06:57;11.83;;;1.27;;
50821;SDS011;36794;51.212;6.980;2023-03-14T04:09:23;12.00;;;2.00;;
50821;SDS011;36794;51.212;6.980;2023-03-14T04:11:49;8.33;;;1.63;;
50821;SDS011;36794;51.212;6.980;2023-03-14T04:14:15;8.57;;;1.30;;
50821;SDS011;36794;51.212;6.980;2023-03-14T04:16:41;8.27;;;1.50;;
50821;SDS011;36794;51.212;6.980;2023-03-14T04:19:07;8.90;;;1.07;;
50821;SDS011;36794;51.212;6.980;2023-03-14T04:21:33;16.13;;;2.00;;
50821;SDS011;36794;51.212;6.980;2023-03-14T04:23:59;12.13;;;1.30;;
50821;SDS011;36794;51.212;6.980;2023-03-14T04:26:25;7.70;;;1.60;;
50821;SDS011;36794;51.212;6.980;2023-03-14T04:28:51;7.80;;;1.67;;
50821;SDS011;36794;51.212;6.980;2023-03-14T04:31:19;16.00;;;2.03;;
50821;SDS011;36794;51.212;6.980;2023-03-14T04:33:45;11.10;;;2.30;;
50821;SDS011;36794;51.212;6.980;2023-03-14T04:36:11;14.90;;;2.37;;
50821;SDS011;36794;51.212;6.980;2023-03-14T04:38:37;15.23;;;3.00;;
50821;SDS011;36794;51.212;6.980;2023-03-14T04:41:03;9.10;;;2.73;;
50821;SDS011;36794;51.212;6.980;2023-03-14T04:43:29;11.13;;;2.67;;
50821;SDS011;36794;51.212;6.980;2023-03-14T04:45:56;11.27;;;2.63;;
50821;SDS011;36794;51.212;6.980;2023-03-14T04:48:22;17.90;;;2.97;;
50821;SDS011;36794;51.212;6.980;2023-03-14T04:50:48;11.60;;;2.17;;
50821;SDS011;36794;51.212;6.980;2023-03-14T04:53:14;17.43;;;3.47;;
50821;SDS011;36794;51.212;6.980;2023-03-14T04:55:40;10.33;;;2.10;;
50821;SDS011;36794;51.212;6.980;2023-03-14T04:58:06;10.97;;;2.03;;
50821;SDS011;36794;51.212;6.980;2023-03-14T05:00:32;11.27;;;2.20;;
50821;SDS011;36794;51.212;6.980;2023-03-14T05:02:58;12.70;;;2.00;;
50821;SDS011;36794;51.212;6.980;2023-03-14T05:05:25;8.20;;;1.40;;
50821;SDS011;36794;51.212;6.980;2023-03-14T05:07:51;9.27;;;1.37;;
50821;SDS011;36794;51.212;6.980;2023-03-14T05:10:17;10.93;;;1.40;;
50821;SDS011;36794;51.212;6.980;2023-03-14T05:12:43;15.20;;;1.67;;
50821;SDS011;36794;51.212;6.980;2023-03-14T05:15:09;6.70;;;1.40;;
50821;SDS011;36794;51.212;6.980;2023-03-14T05:17:35;4.97;;;1.07;;
50821;SDS011;36794;51.212;6.980;2023-03-14T05:20:01;11.53;;;1.37;;
50821;SDS011;36794;51.212;6.980;2023-03-14T05:22:32;5.47;;;1.10;;
50821;SDS011;36794;51.212;6.980;2023-03-14T05:24:58;10.60;;;0.90;;
50821;SDS011;36794;51.212;6.980;2023-03-14T05:27:24;6.77;;;0.90;;
50821;SDS011;36794;51.212;6.980;2023-03-14T05:29:50;6.43;;;0.63;;
50821;SDS011;36794;51.212;6.980;2023-03-14T05:32:16;4.37;;;0.70;;
50821;SDS011;36794;51.212;6.980;2023-03-14T05:34:42;11.53;;;0.87;;
50821;SDS011;36794;51.212;6.980;2023-03-14T05:37:08;9.20;;;0.70;;
50821;SDS011;36794;51.212;6.980;2023-03-14T05:39:34;3.80;;;0.70;;
50821;SDS011;36794;51.212;6.980;2023-03-14T05:41:59;5.40;;;0.77;;
50821;SDS011;36794;51.212;6.980;2023-03-14T05:44:25;6.80;;;0.97;;
50821;SDS011;36794;51.212;6.980;2023-03-14T05:46:51;6.13;;;0.70;;
50821;SDS011;36794;51.212;6.980;2023-03-14T05:49:17;10.67;;;0.80;;
50821;SDS011;36794;51.212;6.980;2023-03-14T05:51:43;8.53;;;0.70;;
50821;SDS011;36794;51.212;6.980;2023-03-14T05:54:09;3.03;;;0.80;;
50821;SDS011;36794;51.212;6.980;2023-03-14T05:56:35;5.93;;;0.63;;
50821;SDS011;36794;51.212;6.980;2023-03-14T05:59:01;3.27;;;0.60;;
50821;SDS011;36794;51.212;6.980;2023-03-14T06:01:28;5.20;;;0.80;;
50821;SDS011;36794;51.212;6.980;2023-03-14T06:03:54;2.63;;;0.80;;
50821;SDS011;36794;51.212;6.980;2023-03-14T06:06:20;2.40;;;0.40;;
50821;SDS011;36794;51.212;6.980;2023-03-14T06:08:46;3.87;;;0.60;;
50821;SDS011;36794;51.212;6.980;2023-03-14T06:11:12;3.63;;;0.40;;
50821;SDS011;36794;51.212;6.980;2023-03-14T06:13:38;4.07;;;0.50;;
50821;SDS011;36794;51.212;6.980;2023-03-14T06:16:04;1.23;;;0.50;;
50821;SDS011;36794;51.212;6.980;2023-03-14T06:18:31;3.63;;;0.50;;
50821;SDS011;36794;51.212;6.980;2023-03-14T06:20:57;2.10;;;0.30;;
50821;SDS011;36794;51.212;6.980;2023-03-14T06:23:23;2.30;;;0.43;;
50821;SDS011;36794;51.212;6.980;2023-03-14T06:25:50;3.73;;;0.30;;
50821;SDS011;36794;51.212;6.980;2023-03-14T06:28:16;1.50;;;0.60;;
50821;SDS011;36794;51.212;6.980;2023-03-14T06:30:42;1.23;;;0.80;;
50821;SDS011;36794;51.212;6.980;2023-03-14T06:33:08;0.27;;;0.20;;
50821;SDS011;36794;51.212;6.980;2023-03-14T06:35:34;0.63;;;0.30;;
50821;SDS011;36794;51.212;6.980;2023-03-14T06:38:00;1.23;;;0.30;;
50821;SDS011;36794;51.212;6.980;2023-03-14T06:40:26;2.07;;;0.40;;
50821;SDS011;36794;51.212;6.980;2023-03-14T06:42:52;1.97;;;0.10;;
50821;SDS011;36794;51.212;6.980;2023-03-14T06:45:17;2.23;;;0.30;;
50821;SDS011;36794;51.212;6.980;2023-03-14T06:47:43;3.17;;;0.40;;
50821;SDS011;36794;51.212;6.980;2023-03-14T06:50:09;1.90;;;0.20;;
50821;SDS011;36794;51.212;6.980;2023-03-14T06:52:36;3.20;;;0.30;;
50821;SDS011;36794;51.212;6.980;2023-03-14T06:55:02;2.13;;;0.30;;
50821;SDS011;36794;51.212;6.980;2023-03-14T06:57:28;1.20;;;0.10;;
50821;SDS011;36794;51.212;6.980;2023-03-14T06:59:54;0.17;;;0.10;;
50821;SDS011;36794;51.212;6.980;2023-03-14T07:02:20;3.13;;;0.20;;
50821;SDS011;36794;51.212;6.980;2023-03-14T07:04:46;1.80;;;0.20;;
50821;SDS011;36794;51.212;6.980;2023-03-14T07:07:12;1.87;;;0.20;;
50821;SDS011;36794;51.212;6.980;2023-03-14T07:09:38;0.50;;;0.20;;
50821;SDS011;36794;51.212;6.980;2023-03-14T07:12:04;1.40;;;0.13;;
50821;SDS011;36794;51.212;6.980;2023-03-14T07:14:30;2.37;;;0.20;;
50821;SDS011;36794;51.212;6.980;2023-03-14T07:16:56;0.30;;;0.10;;
50821;SDS011;36794;51.212;6.980;2023-03-14T07:19:22;0.30;;;0.10;;
50821;SDS011;36794;51.212;6.980;2023-03-14T07:21:48;0.93;;;0.20;;
50821;SDS011;36794;51.212;6.980;2023-03-14T07:24:14;1.47;;;0.20;;
50821;SDS011;36794;51.212;6.980;2023-03-14T07:26:40;0.43;;;0.30;;
50821;SDS011;36794;51.212;6.980;2023-03-14T07:29:06;1.97;;;0.20;;
50821;SDS011;36794;51.212;6.980;2023-03-14T07:31:32;0.50;;;0.10;;
50821;SDS011;36794;51.212;6.980;2023-03-14T07:33:58;2.10;;;0.20;;
50821;SDS011;36794;51.212;6.980;2023-03-14T07:36:24;0.20;;;0.17;;
50821;SDS011;36794;51.212;6.980;2023-03-14T07:38:50;1.30;;;0.20;;
50821;SDS011;36794;51.212;6.980;2023-03-14T07:41:17;0.63;;;0.10;;
50821;SDS011;36794;51.212;6.980;2023-03-14T07:43:43;0.57;;;0.30;;
50821;SDS011;36794;51.212;6.980;2023-03-14T07:46:09;0.80;;;0.33;;
50821;SDS011;36794;51.212;6.980;2023-03-14T07:48:35;0.50;;;0.30;;
50821;SDS011;36794;51.212;6.980;2023-03-14T07:51:01;1.43;;;0.23;;
50821;SDS011;36794;51.212;6.980;2023-03-14T07:53:27;0.90;;;0.20;;
50821;SDS011;36794;51.212;6.980;2023-03-14T07:55:53;1.87;;;0.30;;
50821;SDS011;36794;51.212;6.980;2023-03-14T07:58:19;0.80;;;0.20;;
50821;SDS011;36794;51.212;6.980;2023-03-14T08:00:46;0.83;;;0.30;;
50821;SDS011;36794;51.212;6.980;2023-03-14T08:03:12;0.40;;;0.30;;
50821;SDS011;36794;51.212;6.980;2023-03-14T08:05:39;2.43;;;0.30;;
50821;SDS011;36794;51.212;6.980;2023-03-14T08:08:05;1.40;;;0.40;;
50821;SDS011;36794;51.212;6.980;2023-03-14T08:10:31;2.23;;;0.40;;
50821;SDS011;36794;51.212;6.980;2023-03-14T08:12:58;2.30;;;0.40;;
50821;SDS011;36794;51.212;6.980;2023-03-14T08:15:24;2.40;;;0.40;;
50821;SDS011;36794;51.212;6.980;2023-03-14T08:17:51;2.50;;;0.43;;
50821;SDS011;36794;51.212;6.980;2023-03-14T08:20:18;1.87;;;0.40;;
50821;SDS011;36794;51.212;6.980;2023-03-14T08:22:44;1.23;;;0.50;;
50821;SDS011;36794;51.212;6.980;2023-03-14T08:25:10;0.97;;;0.50;;
50821;SDS011;36794;51.212;6.980;2023-03-14T08:27:36;1.13;;;0.40;;
50821;SDS011;36794;51.212;6.980;2023-03-14T08:30:04;1.13;;;0.37;;
50821;SDS011;36794;51.212;6.980;2023-03-14T08:32:30;2.03;;;0.47;;
50821;SDS011;36794;51.212;6.980;2023-03-14T08:34:56;1.20;;;0.40;;
50821;SDS011;36794;51.212;6.980;2023-03-14T08:37:22;3.00;;;0.90;;
50821;SDS011;36794;51.212;6.980;2023-03-14T08:39:49;1.40;;;0.60;;
50821;SDS011;36794;51.212;6.980;2023-03-14T08:42:15;0.60;;;0.30;;
50821;SDS011;36794;51.212;6.980;2023-03-14T08:44:41;1.03;;;0.37;;
50821;SDS011;36794;51.212;6.980;2023-03-14T08:47:07;1.37;;;0.40;;
50821;SDS011;36794;51.212;6.980;2023-03-14T08:49:33;1.77;;;0.50;;
50821;SDS011;36794;51.212;6.980;2023-03-14T08:51:59;0.90;;;0.40;;
50821;SDS011;36794;51.212;6.980;2023-03-14T08:54:24;1.07;;;0.60;;
50821;SDS011;36794;51.212;6.980;2023-03-14T08:56:50;2.57;;;0.60;;
50821;SDS011;36794;51.212;6.980;2023-03-14T08:59:16;3.60;;;0.60;;
50821;SDS011;36794;51.212;6.980;2023-03-14T09:01:43;1.73;;;0.50;;
50821;SDS011;36794;51.212;6.980;2023-03-14T09:04:09;2.13;;;0.70;;
50821;SDS011;36794;51.212;6.980;2023-03-14T09:06:35;2.63;;;0.70;;
50821;SDS011;36794;51.212;6.980;2023-03-14T09:09:01;5.53;;;0.83;;
50821;SDS011;36794;51.212;6.980;2023-03-14T09:11:27;2.73;;;0.80;;
50821;SDS011;36794;51.212;6.980;2023-03-14T09:13:53;2.47;;;0.50;;
50821;SDS011;36794;51.212;6.980;2023-03-14T09:16:19;2.17;;;0.60;;
50821;SDS011;36794;51.212;6.980;2023-03-14T09:18:45;1.43;;;0.60;;
50821;SDS011;36794;51.212;6.980;2023-03-14T09:21:11;2.33;;;0.77;;
50821;SDS011;36794;51.212;6.980;2023-03-14T09:23:37;3.87;;;0.60;;
50821;SDS011;36794;51.212;6.980;2023-03-14T09:26:03;1.53;;;0.70;;
50821;SDS011;36794;51.212;6.980;2023-03-14T09:28:29;1.83;;;0.70;;
50821;SDS011;36794;51.212;6.980;2023-03-14T09:30:55;2.70;;;0.50;;
50821;SDS011;36794;51.212;6.980;2023-03-14T09:33:23;1.53;;;0.53;;
50821;SDS011;36794;51.212;6.980;2023-03-14T09:35:49;1.07;;;0.40;;
50821;SDS011;36794;51.212;6.980;2023-03-14T09:38:15;2.50;;;0.93;;
50821;SDS011;36794;51.212;6.980;2023-03-14T09:40:41;0.80;;;0.27;;
50821;SDS011;36794;51.212;6.980;2023-03-14T09:43:14;0.23;;;0.20;;
50821;SDS011;36794;51.212;6.980;2023-03-14T09:45:40;0.43;;;0.13;;
50821;SDS011;36794;51.212;6.980;2023-03-14T09:48:11;0.93;;;0.20;;
50821;SDS011;36794;51.212;6.980;2023-03-14T09:50:42;0.47;;;0.20;;
50821;SDS011;36794;51.212;6.980;2023-03-14T09:53:16;0.40;;;0.20;;
50821;SDS011;36794;51.212;6.980;2023-03-14T09:55:43;0.95;;;0.45;;
50821;SDS011;36794;51.212;6.980;2023-03-14T09:58:12;1.67;;;0.50;;
50821;SDS011;36794;51.212;6.980;2023-03-14T10:00:38;0.70;;;0.30;;
50821;SDS011;36794;51.212;6.980;2023-03-14T10:05:42;1.00;;;0.40;;
50821;SDS011;36794;51.212;6.980;2023-03-14T10:08:12;1.23;;;0.33;;
50821;SDS011;36794;51.212;6.980;2023-03-14T10:10:39;1.53;;;0.60;;
50821;SDS011;36794;51.212;6.980;2023-03-14T10:15:40;2.10;;;0.73;;
50821;SDS011;36794;51.212;6.980;2023-03-14T10:18:12;0.87;;;0.87;;
50821;SDS011;36794;51.212;6.980;2023-03-14T10:20:40;3.03;;;0.90;;
50821;SDS011;36794;51.212;6.980;2023-03-14T10:25:43;1.60;;;1.00;;
50821;SDS011;36794;51.212;6.980;2023-03-14T10:30:44;2.23;;;0.87;;
50821;SDS011;36794;51.212;6.980;2023-03-14T10:33:16;1.50;;;1.00;;
50821;SDS011;36794;51.212;6.980;2023-03-14T10:35:45;1.55;;;0.93;;
50821;SDS011;36794;51.212;6.980;2023-03-14T10:38:15;2.53;;;1.23;;
50821;SDS011;36794;51.212;6.980;2023-03-14T10:40:46;3.27;;;1.07;;
50821;SDS011;36794;51.212;6.980;2023-03-14T10:43:18;2.47;;;1.00;;
50821;SDS011;36794;51.212;6.980;2023-03-14T10:45:51;2.30;;;1.00;;
50821;SDS011;36794;51.212;6.980;2023-03-14T10:48:22;2.07;;;0.77;;
50821;SDS011;36794;51.212;6.980;2023-03-14T10:53:16;2.80;;;0.90;;
50821;SDS011;36794;51.212;6.980;2023-03-14T10:55:43;3.00;;;1.00;;
50821;SDS011;36794;51.212;6.980;2023-03-14T10:58:44;2.50;;;0.80;;
50821;SDS011;36794;51.212;6.980;2023-03-14T11:01:06;2.63;;;1.10;;
50821;SDS011;36794;51.212;6.980;2023-03-14T11:03:34;2.77;;;1.13;;
50821;SDS011;36794;51.212;6.980;2023-03-14T11:06:05;2.27;;;1.00;;
50821;SDS011;36794;51.212;6.980;2023-03-14T11:08:49;3.63;;;1.20;;
50821;SDS011;36794;51.212;6.980;2023-03-14T11:16:32;2.73;;;1.37;;
50821;SDS011;36794;51.212;6.980;2023-03-14T11:21:43;5.50;;;2.40;;
50821;SDS011;36794;51.212;6.980;2023-03-14T11:27:06;6.18;;;1.63;;
50821;SDS011;36794;51.212;6.980;2023-03-14T11:29:39;3.03;;;1.00;;
50821;SDS011;36794;51.212;6.980;2023-03-14T11:32:12;3.73;;;1.10;;
50821;SDS011;36794;51.212;6.980;2023-03-14T11:34:41;3.60;;;1.00;;
50821;SDS011;36794;51.212;6.980;2023-03-14T11:37:26;6.80;;;1.30;;
50821;SDS011;36794;51.212;6.980;2023-03-14T11:39:59;4.77;;;0.80;;
50821;SDS011;36794;51.212;6.980;2023-03-14T11:42:26;7.63;;;1.00;;
50821;SDS011;36794;51.212;6.980;2023-03-14T11:44:52;4.90;;;1.07;;
50821;SDS011;36794;51.212;6.980;2023-03-14T11:52:32;3.93;;;1.60;;
50821;SDS011;36794;51.212;6.980;2023-03-14T11:55:00;6.87;;;1.90;;
50821;SDS011;36794;51.212;6.980;2023-03-14T11:57:28;8.17;;;2.40;;
50821;SDS011;36794;51.212;6.980;2023-03-14T12:02:21;2.87;;;1.90;;
50821;SDS011;36794;51.212;6.980;2023-03-14T12:07:40;6.70;;;1.90;;
50821;SDS011;36794;51.212;6.980;2023-03-14T12:10:08;5.37;;;2.10;;
50821;SDS011;36794;51.212;6.980;2023-03-14T12:12:34;4.83;;;2.20;;
50821;SDS011;36794;51.212;6.980;2023-03-14T12:15:01;7.33;;;2.10;;
50821;SDS011;36794;51.212;6.980;2023-03-14T12:17:41;7.53;;;2.17;;
50821;SDS011;36794;51.212;6.980;2023-03-14T12:25:22;5.00;;;2.60;;
50821;SDS011;36794;51.212;6.980;2023-03-14T12:28:02;6.03;;;3.03;;
50821;SDS011;36794;51.212;6.980;2023-03-14T12:35:43;4.85;;;2.63;;
50821;SDS011;36794;51.212;6.980;2023-03-14T12:38:10;3.80;;;2.33;;
50821;SDS011;36794;51.212;6.980;2023-03-14T12:40:39;8.67;;;2.50;;
50821;SDS011;36794;51.212;6.980;2023-03-14T12:46:07;7.87;;;1.93;;
50821;SDS011;36794;51.212;6.980;2023-03-14T12:48:33;5.17;;;1.50;;
50821;SDS011;36794;51.212;6.980;2023-03-14T12:51:03;3.53;;;1.30;;
50821;SDS011;36794;51.212;6.980;2023-03-14T12:58:32;5.40;;;1.50;;
50821;SDS011;36794;51.212;6.980;2023-03-14T13:01:01;6.00;;;1.87;;
50821;SDS011;36794;51.212;6.980;2023-03-14T13:03:38;4.33;;;1.40;;
50821;SDS011;36794;51.212;6.980;2023-03-14T13:06:05;7.87;;;1.73;;
50821;SDS011;36794;51.212;6.980;2023-03-14T13:11:05;8.07;;;1.67;;
50821;SDS011;36794;51.212;6.980;2023-03-14T13:13:31;9.53;;;2.67;;
50821;SDS011;36794;51.212;6.980;2023-03-14T13:16:00;10.40;;;2.33;;
50821;SDS011;36794;51.212;6.980;2023-03-14T13:18:34;8.37;;;2.23;;
50821;SDS011;36794;51.212;6.980;2023-03-14T13:23:39;6.40;;;1.73;;
50821;SDS011;36794;51.212;6.980;2023-03-14T13:26:10;10.17;;;1.73;;
50821;SDS011;36794;51.212;6.980;2023-03-14T13:28:36;14.70;;;2.13;;
50821;SDS011;36794;51.212;6.980;2023-03-14T13:31:03;12.23;;;2.23;;
50821;SDS011;36794;51.212;6.980;2023-03-14T13:33:30;10.53;;;1.40;;
50821;SDS011;36794;51.212;6.980;2023-03-14T13:35:57;15.40;;;1.93;;
50821;SDS011;36794;51.212;6.980;2023-03-14T13:38:24;10.03;;;1.20;;
50821;SDS011;36794;51.212;6.980;2023-03-14T13:40:51;9.10;;;1.70;;
50821;SDS011;36794;51.212;6.980;2023-03-14T13:43:23;12.43;;;1.60;;
50821;SDS011;36794;51.212;6.980;2023-03-14T13:45:55;11.83;;;1.60;;
50821;SDS011;36794;51.212;6.980;2023-03-14T13:48:22;11.33;;;2.37;;
50821;SDS011;36794;51.212;6.980;2023-03-14T13:50:52;12.20;;;2.07;;
50821;SDS011;36794;51.212;6.980;2023-03-14T13:53:19;19.97;;;2.50;;
50821;SDS011;36794;51.212;6.980;2023-03-14T13:55:45;16.00;;;2.27;;
50821;SDS011;36794;51.212;6.980;2023-03-14T13:58:21;18.03;;;2.23;;
50821;SDS011;36794;51.212;6.980;2023-03-14T14:00:58;14.10;;;2.13;;
50821;SDS011;36794;51.212;6.980;2023-03-14T14:03:25;14.20;;;2.70;;
50821;SDS011;36794;51.212;6.980;2023-03-14T14:05:52;14.27;;;2.43;;
50821;SDS011;36794;51.212;6.980;2023-03-14T14:08:19;23.33;;;2.57;;
50821;SDS011;36794;51.212;6.980;2023-03-14T14:10:46;20.57;;;2.83;;
50821;SDS011;36794;51.212;6.980;2023-03-14T14:13:14;16.00;;;2.53;;
50821;SDS011;36794;51.212;6.980;2023-03-14T14:15:44;18.00;;;2.60;;
50821;SDS011;36794;51.212;6.980;2023-03-14T14:18:12;20.27;;;3.17;;
50821;SDS011;36794;51.212;6.980;2023-03-14T14:20:40;21.27;;;3.37;;
50821;SDS011;36794;51.212;6.980;2023-03-14T14:23:11;23.90;;;3.07;;
50821;SDS011;36794;51.212;6.980;2023-03-14T14:25:38;20.87;;;2.73;;
50821;SDS011;36794;51.212;6.980;2023-03-14T14:30:45;21.97;;;3.03;;
50821;SDS011;36794;51.212;6.980;2023-03-14T14:33:16;28.27;;;3.20;;
50821;SDS011;36794;51.212;6.980;2023-03-14T14:35:42;29.37;;;3.63;;
50821;SDS011;36794;51.212;6.980;2023-03-14T14:38:16;24.93;;;3.60;;
50821;SDS011;36794;51.212;6.980;2023-03-14T14:40:43;20.37;;;3.47;;
50821;SDS011;36794;51.212;6.980;2023-03-14T14:43:10;24.07;;;3.20;;
50821;SDS011;36794;51.212;6.980;2023-03-14T14:45:37;22.83;;;3.20;;
50821;SDS011;36794;51.212;6.980;2023-03-14T14:48:05;15.87;;;3.27;;
50821;SDS011;36794;51.212;6.980;2023-03-14T14:52:58;25.77;;;3.20;;
50821;SDS011;36794;51.212;6.980;2023-03-14T14:55:28;12.03;;;2.40;;
50821;SDS011;36794;51.212;6.980;2023-03-14T14:57:57;18.27;;;2.27;;
50821;SDS011;36794;51.212;6.980;2023-03-14T15:00:23;16.57;;;3.07;;
50821;SDS011;36794;51.212;6.980;2023-03-14T15:02:51;16.87;;;2.10;;
50821;SDS011;36794;51.212;6.980;2023-03-14T15:05:19;13.43;;;2.37;;
50821;SDS011;36794;51.212;6.980;2023-03-14T15:07:45;22.20;;;2.67;;
50821;SDS011;36794;51.212;6.980;2023-03-14T15:10:12;18.13;;;2.00;;
50821;SDS011;36794;51.212;6.980;2023-03-14T15:12:38;17.00;;;2.20;;
50821;SDS011;36794;51.212;6.980;2023-03-14T15:15:05;18.30;;;1.73;;
50821;SDS011;36794;51.212;6.980;2023-03-14T15:17:31;8.53;;;1.50;;
50821;SDS011;36794;51.212;6.980;2023-03-14T15:19:57;16.23;;;1.57;;
50821;SDS011;36794;51.212;6.980;2023-03-14T15:22:23;11.67;;;1.90;;
50821;SDS011;36794;51.212;6.980;2023-03-14T15:24:49;14.90;;;1.20;;
50821;SDS011;36794;51.212;6.980;2023-03-14T15:27:15;11.40;;;1.20;;
50821;SDS011;36794;51.212;6.980;2023-03-14T15:29:42;15.80;;;2.20;;
50821;SDS011;36794;51.212;6.980;2023-03-14T15:32:12;13.00;;;1.40;;
50821;SDS011;36794;51.212;6.980;2023-03-14T15:34:39;17.83;;;2.10;;
50821;SDS011;36794;51.212;6.980;2023-03-14T15:37:05;10.27;;;1.30;;
50821;SDS011;36794;51.212;6.980;2023-03-14T15:39:35;10.87;;;1.40;;
50821;SDS011;36794;51.212;6.980;2023-03-14T15:42:01;8.40;;;1.40;;
50821;SDS011;36794;51.212;6.980;2023-03-14T15:44:27;11.13;;;1.47;;
50821;SDS011;36794;51.212;6.980;2023-03-14T15:46:53;10.37;;;1.10;;
50821;SDS011;36794;51.212;6.980;2023-03-14T15:49:19;10.27;;;1.10;;
50821;SDS011;36794;51.212;6.980;2023-03-14T15:51:45;9.20;;;1.10;;
50821;SDS011;36794;51.212;6.980;2023-03-14T15:54:11;8.07;;;1.53;;
50821;SDS011;36794;51.212;6.980;2023-03-14T15:56:36;15.53;;;1.93;;